Sand Point, Michigan
Current Conditions -  °F | °C
As of 6:58 AM on Tuesday 21 Oct 2014 (Local Time) from KBAX Reporting Station
Overcast Overcast  
Wind Chill: 39°   Ceiling: 2200
Heat Index: 45°   Visibility: 10mi
Dew Point: 42°   Wind: 12mph
Humidity: 91%   Direction: 10°N
Pressure: 29.95"   Gusts: 17mph
Location:  43.8338°N, 83.2671°W
Report Text: KBAX 211058Z AUTO 01010G15KT 10SM BKN022 OVC028 07/06 A2995 RMK AO2 T00700057
Loading
Personal Weather Stations






























Interactive Weather Map New forecast layout! Learn more

10-Day Weather Forecast

Advertisements
Track Severe Weather on mobile